Time;durP1;ratioP1;P1;durP2;ratioP2;P2;SDS_P1;SDS_P2;PMS_P1;PMS_P2;Temp;Humidity;BMP_temperature;BMP_pressure;BME280_temperature;BME280_humidity;BME280_pressure;Samples;Min_cycle;Max_cycle;Signal;HPM_P1;HPM_P2
2021/07/14 00:00:21;;;;;;;89.88;39.92;;;18.70;99.90;;;;;;6240902;23;20100;-78
2021/07/14 00:02:48;;;;;;;91.25;39.92;;;18.70;99.90;;;;;;6243473;23;20016;-77
2021/07/14 00:05:16;;;;;;;89.32;40.08;;;18.70;99.90;;;;;;6242590;23;20333;-78
2021/07/14 00:07:43;;;;;;;90.97;38.78;;;18.70;99.90;;;;;;6240653;23;20044;-79
2021/07/14 00:10:18;;;;;;;82.70;39.40;;;18.70;99.90;;;;;;6241961;23;20023;-77
2021/07/14 00:13:07;;;;;;;98.35;40.08;;;18.70;99.90;;;;;;6241483;23;20016;-78
2021/07/14 00:23:37;;;;;;;91.10;42.10;;;18.70;99.90;;;;;;6245471;23;20012;-79
2021/07/14 00:26:04;;;;;;;76.43;38.28;;;18.70;99.90;;;;;;6244400;22;20082;-79
2021/07/14 00:28:30;;;;;;;96.65;40.25;;;18.70;99.90;;;;;;6253549;23;20126;-79
2021/07/14 00:30:58;;;;;;;89.88;42.10;;;18.70;99.90;;;;;;6242867;23;20429;-79
2021/07/14 00:33:26;;;;;;;94.75;42.85;;;18.70;99.90;;;;;;6254342;22;20016;-77
2021/07/14 00:35:52;;;;;;;83.68;41.83;;;18.70;99.90;;;;;;6245486;22;20093;-80
2021/07/14 00:38:20;;;;;;;84.35;42.33;;;18.60;99.90;;;;;;6217038;23;20023;-79
2021/07/14 00:40:46;;;;;;;86.40;40.03;;;18.70;99.90;;;;;;6243914;23;20015;-80
2021/07/14 00:43:12;;;;;;;99.82;44.17;;;18.60;99.90;;;;;;6255860;22;20081;-80
2021/07/14 00:45:38;;;;;;;95.40;44.15;;;18.70;99.90;;;;;;6244167;23;20373;-80
2021/07/14 00:48:05;;;;;;;106.82;43.20;;;18.60;99.90;;;;;;6243092;23;20048;-77
2021/07/14 00:50:31;;;;;;;88.63;39.60;;;18.60;99.90;;;;;;6255397;22;20020;-80
2021/07/14 00:52:57;;;;;;;106.30;42.70;;;18.60;99.90;;;;;;6244110;23;20462;-78
2021/07/14 00:55:23;;;;;;;122.70;49.10;;;18.60;99.90;;;;;;6252154;23;20019;-78
2021/07/14 00:57:49;;;;;;;125.45;50.33;;;18.60;99.90;;;;;;6254431;23;20344;-78
2021/07/14 01:00:15;;;;;;;135.23;52.58;;;18.60;99.90;;;;;;6255067;23;20012;-77
2021/07/14 01:02:42;;;;;;;140.82;54.88;;;18.60;99.90;;;;;;6253678;23;20008;-80
2021/07/14 01:05:21;;;;;;;151.82;56.72;;;18.60;99.90;;;;;;6245847;23;20012;-78
2021/07/14 01:08:01;;;;;;;147.43;55.90;;;18.60;99.90;;;;;;6248551;23;20022;-80
2021/07/14 01:10:38;;;;;;;158.95;57.63;;;18.60;99.90;;;;;;6243421;22;20012;-78
2021/07/14 01:13:24;;;;;;;158.77;55.30;;;18.70;99.90;;;;;;6254472;22;20112;-77
2021/07/14 01:16:17;;;;;;;157.45;53.63;;;18.60;99.90;;;;;;6254660;22;20015;-77
2021/07/14 01:19:14;;;;;;;186.93;57.50;;;18.60;99.90;;;;;;6224800;23;20042;-79
2021/07/14 01:21:43;;;;;;;178.05;54.67;;;18.60;99.90;;;;;;6241708;23;20008;-77
2021/07/14 01:24:12;;;;;;;181.32;55.08;;;18.60;99.90;;;;;;6243708;22;20046;-78
2021/07/14 01:27:06;;;;;;;203.15;58.35;;;18.60;99.90;;;;;;6241980;23;20394;-79
2021/07/14 01:29:35;;;;;;;186.63;53.97;;;18.60;99.90;;;;;;6242414;23;20377;-79
2021/07/14 01:32:03;;;;;;;158.93;49.55;;;18.60;99.90;;;;;;6241662;23;20016;-79
2021/07/14 01:34:31;;;;;;;204.70;55.22;;;18.50;99.90;;;;;;6256187;22;20012;-79
2021/07/14 01:37:00;;;;;;;162.88;51.80;;;18.50;99.90;;;;;;6242223;23;20027;-79
2021/07/14 01:39:28;;;;;;;166.98;56.50;;;18.50;99.90;;;;;;6254959;22;20008;-78
2021/07/14 01:41:55;;;;;;;160.23;56.17;;;18.50;99.90;;;;;;6253632;22;20336;-77
2021/07/14 01:44:25;;;;;;;141.27;50.53;;;18.50;99.90;;;;;;6243397;23;20012;-79
2021/07/14 01:46:57;;;;;;;153.57;52.05;;;18.50;99.90;;;;;;6253685;22;20502;-79
2021/07/14 01:49:24;;;;;;;141.32;49.35;;;18.50;99.90;;;;;;6250164;23;20440;-79
2021/07/14 01:51:58;;;;;;;124.97;46.15;;;18.50;99.90;;;;;;6253522;22;20023;-78
2021/07/14 01:54:26;;;;;;;156.55;49.88;;;18.40;99.90;;;;;;6250608;23;20058;-77
2021/07/14 01:56:54;;;;;;;141.57;48.70;;;18.50;99.90;;;;;;6247230;22;20019;-77
2021/07/14 01:59:22;;;;;;;133.60;47.38;;;18.40;99.90;;;;;;6242991;23;20039;-78
2021/07/14 02:01:51;;;;;;;117.03;42.45;;;18.40;99.90;;;;;;6241208;23;20103;-78
2021/07/14 02:04:33;;;;;;;117.22;44.42;;;18.40;99.90;;;;;;6248713;22;20015;-79
2021/07/14 02:07:04;;;;;;;100.82;40.45;;;18.40;99.90;;;;;;6243064;23;20016;-79
2021/07/14 02:09:36;;;;;;;120.15;43.42;;;18.40;99.90;;;;;;6244480;22;20021;-77
2021/07/14 02:12:06;;;;;;;101.90;38.50;;;18.40;99.90;;;;;;6254355;22;20099;-77
2021/07/14 02:14:37;;;;;;;112.90;40.42;;;18.30;99.90;;;;;;6244766;22;20016;-77
2021/07/14 02:17:10;;;;;;;112.25;39.85;;;18.30;99.90;;;;;;6244195;22;20095;-76
2021/07/14 02:19:37;;;;;;;116.70;43.20;;;18.30;99.90;;;;;;6244037;22;20020;-77
2021/07/14 02:22:03;;;;;;;107.72;38.72;;;18.30;99.90;;;;;;6241520;23;20016;-78
2021/07/14 02:24:31;;;;;;;102.57;38.40;;;18.30;99.90;;;;;;6251756;23;20023;-77
2021/07/14 02:27:04;;;;;;;106.85;38.10;;;18.30;99.90;;;;;;6253491;22;20008;-78
2021/07/14 02:29:30;;;;;;;110.95;39.92;;;18.30;99.90;;;;;;6254257;22;20099;-77
2021/07/14 02:31:56;;;;;;;116.80;41.88;;;18.30;99.90;;;;;;6242111;22;20046;-78
2021/07/14 02:34:22;;;;;;;111.25;39.80;;;18.30;99.90;;;;;;6241875;23;20340;-80
2021/07/14 02:36:49;;;;;;;117.85;39.40;;;18.30;99.90;;;;;;6241383;23;20451;-77
2021/07/14 02:39:16;;;;;;;118.38;39.22;;;18.30;99.90;;;;;;6241660;23;20023;-79
2021/07/14 02:41:48;;;;;;;113.05;39.60;;;18.30;99.90;;;;;;6251954;22;20317;-77
2021/07/14 02:44:17;;;;;;;112.13;37.75;;;18.30;99.90;;;;;;6241516;23;20317;-78
2021/07/14 02:46:45;;;;;;;104.80;39.30;;;18.30;99.90;;;;;;6241557;23;20012;-76
2021/07/14 02:49:16;;;;;;;107.97;39.08;;;18.30;99.90;;;;;;6240647;23;20043;-79
2021/07/14 02:51:45;;;;;;;92.20;35.63;;;18.30;99.90;;;;;;6243350;22;20050;-77
2021/07/14 02:54:22;;;;;;;107.97;40.45;;;18.30;99.90;;;;;;6244365;22;20328;-78
2021/07/14 02:56:55;;;;;;;101.10;40.80;;;18.30;99.90;;;;;;6245982;23;20008;-79
2021/07/14 02:59:33;;;;;;;102.68;40.35;;;18.30;99.90;;;;;;6252974;23;20016;-77
2021/07/14 03:02:00;;;;;;;102.03;40.63;;;18.30;99.90;;;;;;6253132;22;20115;-79
2021/07/14 03:04:29;;;;;;;91.95;42.17;;;18.30;99.90;;;;;;6246806;23;20083;-79
2021/07/14 03:06:56;;;;;;;90.93;41.00;;;18.30;99.90;;;;;;6241577;23;20015;-79
2021/07/14 03:09:31;;;;;;;100.15;41.50;;;18.30;99.90;;;;;;6241521;23;20016;-78
2021/07/14 03:12:01;;;;;;;104.75;44.20;;;18.30;99.90;;;;;;6252111;23;20103;-77
2021/07/14 03:14:27;;;;;;;113.18;47.20;;;18.30;99.90;;;;;;6243643;23;20040;-78
2021/07/14 03:16:54;;;;;;;104.75;44.17;;;18.30;99.90;;;;;;6253171;22;20088;-78
2021/07/14 03:19:21;;;;;;;98.72;43.20;;;18.30;99.90;;;;;;6253146;22;20826;-79
2021/07/14 03:21:48;;;;;;;109.13;46.70;;;18.30;99.90;;;;;;6240351;23;20075;-78
2021/07/14 03:24:15;;;;;;;109.30;48.42;;;18.30;99.90;;;;;;6242636;23;20087;-77
2021/07/14 03:26:41;;;;;;;104.30;47.75;;;18.30;99.90;;;;;;6252386;23;20459;-78
2021/07/14 03:29:10;;;;;;;109.70;47.00;;;18.30;99.90;;;;;;6243961;22;20065;-78
2021/07/14 03:31:38;;;;;;;94.78;45.80;;;18.30;99.90;;;;;;6252698;22;20015;-76
2021/07/14 03:34:04;;;;;;;90.65;47.00;;;18.30;99.90;;;;;;6240702;23;20095;-79
2021/07/14 03:36:30;;;;;;;99.10;45.53;;;18.30;99.90;;;;;;6252633;23;20093;-77
2021/07/14 03:38:57;;;;;;;93.50;46.03;;;18.30;99.90;;;;;;6246366;22;20705;-80
2021/07/14 03:41:23;;;;;;;89.32;45.83;;;18.40;99.90;;;;;;6240418;23;20502;-79
2021/07/14 03:43:53;;;;;;;86.05;43.20;;;18.30;99.90;;;;;;6253988;23;20008;-77
2021/07/14 03:46:19;;;;;;;80.82;42.45;;;18.40;99.90;;;;;;6251014;23;20012;-79
2021/07/14 03:48:47;;;;;;;77.47;42.20;;;18.30;99.90;;;;;;6243185;22;20190;-79
2021/07/14 03:51:13;;;;;;;69.13;40.42;;;18.40;99.90;;;;;;6245727;22;20012;-77
2021/07/14 03:53:40;;;;;;;68.00;39.78;;;18.40;99.90;;;;;;6248150;23;20016;-78
2021/07/14 03:56:08;;;;;;;80.07;42.47;;;18.40;99.90;;;;;;6250729;22;20022;-78
2021/07/14 03:58:37;;;;;;;74.22;41.97;;;18.40;99.90;;;;;;6243171;23;20095;-79
2021/07/14 04:01:03;;;;;;;68.45;40.20;;;18.40;99.90;;;;;;6252102;23;20439;-78
2021/07/14 04:03:31;;;;;;;82.28;43.25;;;18.40;99.90;;;;;;6242648;23;20023;-78
2021/07/14 04:06:07;;;;;;;79.22;43.90;;;18.40;99.90;;;;;;6244524;23;20004;-77
2021/07/14 04:08:40;;;;;;;74.30;44.35;;;18.40;99.90;;;;;;6241793;23;20028;-78
2021/07/14 04:11:06;;;;;;;74.25;42.38;;;18.40;99.90;;;;;;6244304;22;20019;-78
2021/07/14 04:13:33;;;;;;;73.50;42.20;;;18.40;99.90;;;;;;6254452;22;20023;-78
2021/07/14 04:15:59;;;;;;;74.13;41.47;;;18.40;99.90;;;;;;6217223;23;20012;-77
2021/07/14 04:18:25;;;;;;;65.03;38.95;;;18.40;99.90;;;;;;6243980;23;20054;-80
2021/07/14 04:20:51;;;;;;;75.43;40.55;;;18.40;99.90;;;;;;6243243;23;20023;-79
2021/07/14 04:23:16;;;;;;;69.70;39.35;;;18.40;99.90;;;;;;6242638;23;20023;-80
2021/07/14 04:25:42;;;;;;;70.00;39.47;;;18.40;99.90;;;;;;6254591;23;20016;-78
2021/07/14 04:28:08;;;;;;;65.22;37.78;;;18.40;99.90;;;;;;6255043;23;20044;-78
2021/07/14 04:30:34;;;;;;;75.28;38.30;;;18.40;99.90;;;;;;6255547;22;20066;-78
2021/07/14 04:33:01;;;;;;;60.90;37.63;;;18.40;99.90;;;;;;6253218;23;20016;-79
2021/07/14 04:35:26;;;;;;;58.28;33.85;;;18.40;99.90;;;;;;6254548;23;20018;-79
2021/07/14 04:37:52;;;;;;;60.72;34.38;;;18.50;99.90;;;;;;6243761;23;20475;-78
2021/07/14 04:40:18;;;;;;;63.17;33.95;;;18.50;99.90;;;;;;6255426;23;20058;-81
2021/07/14 04:42:44;;;;;;;62.35;34.28;;;18.50;99.90;;;;;;6243261;23;20146;-78
2021/07/14 04:45:10;;;;;;;62.92;33.63;;;18.50;99.90;;;;;;6255952;23;20055;-78
2021/07/14 04:47:36;;;;;;;62.22;33.25;;;18.50;99.90;;;;;;6253424;23;20040;-79
2021/07/14 04:50:04;;;;;;;65.68;32.38;;;18.40;99.90;;;;;;6255954;23;20023;-78
2021/07/14 04:52:30;;;;;;;55.35;31.75;;;18.50;99.90;;;;;;6245031;22;20090;-79
2021/07/14 04:54:55;;;;;;;47.03;28.92;;;18.50;99.90;;;;;;6243658;23;20050;-79
2021/07/14 04:57:21;;;;;;;47.33;28.05;;;18.50;99.90;;;;;;6246483;23;20022;-79
2021/07/14 04:59:47;;;;;;;48.72;28.08;;;18.50;99.90;;;;;;6254383;23;20286;-79
2021/07/14 05:02:13;;;;;;;46.67;28.33;;;18.50;99.90;;;;;;6243640;23;20066;-79
2021/07/14 05:04:38;;;;;;;48.08;27.95;;;18.60;99.90;;;;;;6244079;23;20389;-78
2021/07/14 05:07:05;;;;;;;45.47;27.83;;;18.60;99.90;;;;;;6244354;23;20096;-79
2021/07/14 05:09:30;;;;;;;42.90;23.88;;;18.60;99.90;;;;;;6244948;23;20340;-80
2021/07/14 05:11:56;;;;;;;44.67;25.25;;;18.60;99.90;;;;;;6256544;23;20019;-80
2021/07/14 05:14:22;;;;;;;39.83;25.05;;;18.60;99.90;;;;;;6219551;23;20026;-79
2021/07/14 05:16:48;;;;;;;41.60;24.30;;;18.60;99.90;;;;;;6243371;23;20083;-78
2021/07/14 05:19:14;;;;;;;43.05;25.60;;;18.60;99.90;;;;;;6244928;23;20020;-79
2021/07/14 05:21:41;;;;;;;45.03;23.80;;;18.70;99.90;;;;;;6255637;22;20039;-79
2021/07/14 05:24:07;;;;;;;39.30;24.13;;;18.70;99.90;;;;;;6244787;22;20443;-77
2021/07/14 05:26:33;;;;;;;39.83;22.10;;;18.70;99.90;;;;;;6253727;23;20012;-80
2021/07/14 05:28:59;;;;;;;42.67;23.90;;;18.80;99.90;;;;;;6243611;23;20047;-78
2021/07/14 05:31:25;;;;;;;32.60;21.33;;;18.70;99.90;;;;;;6243199;23;20127;-78
2021/07/14 05:33:50;;;;;;;37.25;20.55;;;18.80;99.90;;;;;;6255096;23;20496;-79
2021/07/14 05:36:17;;;;;;;38.92;21.25;;;18.90;99.90;;;;;;6254689;23;20016;-80
2021/07/14 05:38:43;;;;;;;29.60;20.25;;;18.90;99.90;;;;;;6249905;22;20039;-78
2021/07/14 05:41:09;;;;;;;38.88;20.85;;;18.90;99.90;;;;;;6243634;23;20491;-77
2021/07/14 05:43:36;;;;;;;39.20;22.65;;;18.90;99.90;;;;;;6243040;23;20444;-76
2021/07/14 05:46:03;;;;;;;33.42;20.38;;;18.90;99.90;;;;;;6244947;22;20012;-78
2021/07/14 05:48:29;;;;;;;34.58;21.65;;;19.00;99.90;;;;;;6254493;22;20052;-78
2021/07/14 05:50:56;;;;;;;34.33;20.23;;;19.10;99.90;;;;;;6243060;23;20078;-78
2021/07/14 05:53:23;;;;;;;34.45;20.17;;;19.10;99.90;;;;;;6248687;23;20058;-77
2021/07/14 05:55:49;;;;;;;35.67;19.75;;;19.10;99.90;;;;;;6250970;23;20062;-77
2021/07/14 05:58:15;;;;;;;33.38;20.25;;;19.20;99.90;;;;;;6250858;23;20052;-76
2021/07/14 06:00:42;;;;;;;34.40;21.10;;;19.20;99.90;;;;;;6243013;23;20112;-76
2021/07/14 06:03:08;;;;;;;35.00;20.27;;;19.20;99.90;;;;;;6253519;22;20083;-77
2021/07/14 06:05:34;;;;;;;31.05;18.75;;;19.30;99.90;;;;;;6244639;23;20008;-77
2021/07/14 06:08:00;;;;;;;32.97;20.17;;;19.40;99.90;;;;;;6243965;22;20017;-78
2021/07/14 06:10:27;;;;;;;30.65;18.90;;;19.50;99.90;;;;;;6253820;23;20078;-77
2021/07/14 06:12:56;;;;;;;32.47;19.35;;;19.60;99.90;;;;;;6241532;23;20018;-77
2021/07/14 06:15:26;;;;;;;27.08;17.23;;;19.60;99.90;;;;;;6254223;22;20070;-79
2021/07/14 06:17:53;;;;;;;26.88;17.05;;;19.70;99.90;;;;;;6253430;22;20046;-78
2021/07/14 06:20:19;;;;;;;25.80;16.83;;;19.70;99.90;;;;;;6241960;23;20015;-78
2021/07/14 06:22:46;;;;;;;23.27;15.65;;;19.80;99.90;;;;;;6251524;22;20008;-79
2021/07/14 06:25:12;;;;;;;20.80;14.27;;;19.80;99.90;;;;;;6215874;23;20409;-78
2021/07/14 06:27:39;;;;;;;25.25;15.73;;;19.80;99.90;;;;;;6252510;23;20012;-78
2021/07/14 06:30:09;;;;;;;25.75;16.67;;;19.80;99.90;;;;;;6244378;22;20012;-77
2021/07/14 06:32:38;;;;;;;25.08;15.57;;;19.80;99.90;;;;;;6217605;23;20019;-77
2021/07/14 06:35:06;;;;;;;23.48;15.93;;;19.80;99.90;;;;;;6241646;23;20024;-76
2021/07/14 06:37:33;;;;;;;24.40;15.05;;;19.90;99.90;;;;;;6252549;23;20026;-81
2021/07/14 06:39:59;;;;;;;21.95;15.30;;;19.90;99.90;;;;;;6244198;22;20077;-79
2021/07/14 06:42:25;;;;;;;25.30;15.63;;;20.00;99.90;;;;;;6242960;23;20012;-79
2021/07/14 06:44:50;;;;;;;21.55;15.55;;;20.00;99.90;;;;;;6255394;23;20083;-80
2021/07/14 06:47:17;;;;;;;25.45;16.35;;;20.00;99.90;;;;;;6254687;23;20063;-80
2021/07/14 06:49:43;;;;;;;21.60;15.75;;;20.10;99.90;;;;;;6253759;23;20016;-81
2021/07/14 06:52:09;;;;;;;23.60;14.70;;;20.20;99.90;;;;;;6253739;23;20012;-80
2021/07/14 06:58:11;;;;;;;21.73;14.75;;;20.30;99.90;;;;;;6214643;23;20741;-80
2021/07/14 07:00:38;;;;;;;22.40;15.18;;;20.40;99.90;;;;;;6197324;23;20015;-81
2021/07/14 07:03:04;;;;;;;28.48;15.35;;;20.40;99.90;;;;;;6185902;23;20023;-81
2021/07/14 07:05:30;;;;;;;22.90;15.98;;;20.40;99.90;;;;;;6223818;23;20017;-81
2021/07/14 07:07:55;;;;;;;19.88;14.52;;;20.30;99.90;;;;;;6186717;23;20140;-80
2021/07/14 07:10:21;;;;;;;23.20;14.70;;;20.40;99.90;;;;;;6187759;23;20021;-80
2021/07/14 07:12:47;;;;;;;24.20;16.05;;;20.40;99.90;;;;;;6187782;23;20039;-80
2021/07/14 07:15:13;;;;;;;20.65;15.18;;;20.50;99.90;;;;;;6224041;23;20433;-80
2021/07/14 07:17:40;;;;;;;21.05;14.90;;;20.60;99.90;;;;;;6186970;23;20024;-81
2021/07/14 07:20:06;;;;;;;18.73;14.75;;;20.60;99.90;;;;;;6187447;23;20027;-81
2021/07/14 07:22:32;;;;;;;24.63;14.60;;;20.70;99.90;;;;;;6187483;23;20051;-80
2021/07/14 07:25:00;;;;;;;20.88;14.40;;;20.60;99.90;;;;;;6189478;23;20021;-80
2021/07/14 07:27:31;;;;;;;20.98;15.40;;;20.70;99.90;;;;;;6216120;23;20017;-81
2021/07/14 07:29:57;;;;;;;22.05;15.63;;;20.70;99.90;;;;;;6189339;23;20071;-79
2021/07/14 07:32:23;;;;;;;25.20;15.05;;;20.60;99.90;;;;;;6189590;23;20016;-80
2021/07/14 07:34:49;;;;;;;22.67;14.70;;;20.80;99.90;;;;;;6200112;23;20128;-80
2021/07/14 07:37:14;;;;;;;23.85;15.68;;;20.90;99.90;;;;;;6189781;23;20016;-80
2021/07/14 07:39:42;;;;;;;21.02;14.50;;;21.00;99.90;;;;;;6215184;23;20016;-79
2021/07/14 07:42:08;;;;;;;24.23;15.52;;;21.00;99.90;;;;;;6214510;23;20017;-79
2021/07/14 07:44:33;;;;;;;24.80;15.57;;;20.90;99.90;;;;;;6189708;23;20349;-79
2021/07/14 07:46:59;;;;;;;22.60;14.48;;;20.80;99.90;;;;;;6190826;23;20080;-78
2021/07/14 07:49:25;;;;;;;25.08;14.90;;;20.80;99.90;;;;;;6201528;23;20031;-79
2021/07/14 07:51:51;;;;;;;21.42;16.33;;;20.90;99.90;;;;;;6200840;23;20016;-80
2021/07/14 07:54:17;;;;;;;28.48;16.15;;;20.90;99.90;;;;;;6196404;23;20555;-79
2021/07/14 07:56:43;;;;;;;25.42;16.80;;;20.90;99.90;;;;;;6213837;23;20024;-78
2021/07/14 07:59:09;;;;;;;23.00;16.02;;;20.90;99.90;;;;;;6246246;23;20023;-78
2021/07/14 08:01:36;;;;;;;21.33;15.38;;;21.00;99.90;;;;;;6257168;23;20382;-78
2021/07/14 08:04:02;;;;;;;23.70;15.80;;;21.00;99.90;;;;;;6218575;23;20008;-78
2021/07/14 08:06:28;;;;;;;24.77;16.23;;;21.00;99.90;;;;;;6256482;22;20012;-77
2021/07/14 08:08:54;;;;;;;25.10;15.15;;;21.00;99.90;;;;;;6246356;23;20082;-77
2021/07/14 08:11:20;;;;;;;22.67;15.93;;;21.10;99.90;;;;;;6255319;23;20023;-77
2021/07/14 08:13:46;;;;;;;27.00;14.95;;;21.00;99.90;;;;;;6244205;23;20008;-77
2021/07/14 08:16:12;;;;;;;23.10;15.38;;;21.00;99.90;;;;;;6243541;23;20034;-76
2021/07/14 08:18:38;;;;;;;23.48;15.68;;;21.00;99.90;;;;;;6243175;23;20016;-78
2021/07/14 08:21:04;;;;;;;25.13;15.43;;;21.00;99.90;;;;;;6245915;23;20042;-78
2021/07/14 08:23:30;;;;;;;20.90;15.23;;;21.10;99.90;;;;;;6252566;23;20016;-78
2021/07/14 08:25:56;;;;;;;23.95;16.80;;;21.00;99.90;;;;;;6246867;23;20050;-81
2021/07/14 08:28:22;;;;;;;24.73;16.83;;;21.10;99.90;;;;;;6256761;23;20008;-81
2021/07/14 08:30:49;;;;;;;22.83;16.65;;;21.30;99.90;;;;;;6246187;23;20063;-81
2021/07/14 08:33:15;;;;;;;28.20;15.82;;;21.20;99.90;;;;;;6255565;22;20019;-82
2021/07/14 08:35:41;;;;;;;25.55;17.02;;;21.20;99.90;;;;;;6218616;23;20024;-78
2021/07/14 08:38:08;;;;;;;26.60;17.27;;;21.10;99.90;;;;;;6254082;23;20486;-79
2021/07/14 08:40:37;;;;;;;29.17;18.30;;;21.10;99.90;;;;;;6244480;23;20062;-81
2021/07/14 08:43:05;;;;;;;22.98;16.88;;;21.20;99.90;;;;;;6245070;23;20012;-80
2021/07/14 08:45:31;;;;;;;26.27;17.08;;;21.30;99.90;;;;;;6244438;23;20016;-81
2021/07/14 08:47:57;;;;;;;23.42;16.92;;;21.30;99.90;;;;;;6244076;23;20016;-79
2021/07/14 08:50:23;;;;;;;28.42;16.35;;;21.20;99.90;;;;;;6255906;22;20337;-79
2021/07/14 08:52:49;;;;;;;21.25;15.55;;;21.30;99.90;;;;;;6243235;23;20016;-79
2021/07/14 08:55:18;;;;;;;24.20;15.63;;;21.30;99.90;;;;;;6245699;22;20012;-79
2021/07/14 08:57:45;;;;;;;23.02;15.70;;;21.20;99.90;;;;;;6244665;22;20121;-78
2021/07/14 09:00:15;;;;;;;22.95;15.90;;;21.20;99.90;;;;;;6243454;23;20102;-79
2021/07/14 09:02:41;;;;;;;23.23;15.65;;;21.40;99.90;;;;;;6244188;22;20040;-83
2021/07/14 09:05:09;;;;;;;24.13;14.98;;;21.50;99.90;;;;;;6246214;23;20719;-81
2021/07/14 09:07:36;;;;;;;24.08;15.18;;;21.60;99.90;;;;;;6243398;23;20121;-80
2021/07/14 09:10:04;;;;;;;25.27;14.90;;;21.60;99.90;;;;;;6245012;22;20380;-80
2021/07/14 09:12:38;;;;;;;22.77;14.73;;;21.60;99.90;;;;;;6255051;22;20031;-83
2021/07/14 09:15:10;;;;;;;28.35;15.30;;;21.50;99.90;;;;;;6243873;23;20014;-79
2021/07/14 09:17:46;;;;;;;26.25;14.73;;;21.70;99.90;;;;;;6242568;23;20027;-81
2021/07/14 09:20:14;;;;;;;22.58;14.88;;;21.90;99.90;;;;;;6253522;23;20016;-79
2021/07/14 09:22:41;;;;;;;25.05;15.90;;;21.90;99.90;;;;;;6242425;23;20425;-77
2021/07/14 09:25:10;;;;;;;27.63;16.40;;;21.90;99.90;;;;;;6246536;22;20436;-80
2021/07/14 09:27:36;;;;;;;22.80;15.18;;;22.10;99.90;;;;;;6217605;23;20487;-80
2021/07/14 09:30:16;;;;;;;21.08;15.18;;;22.10;99.90;;;;;;6243570;23;20012;-79
2021/07/14 09:32:45;;;;;;;22.52;15.05;;;22.10;99.90;;;;;;6255068;22;20008;-79
2021/07/14 09:35:11;;;;;;;23.15;14.82;;;22.30;99.90;;;;;;6253737;23;20008;-82
2021/07/14 09:37:38;;;;;;;21.25;14.30;;;22.30;99.90;;;;;;6245087;23;20019;-82
2021/07/14 09:40:15;;;;;;;23.88;14.20;;;22.10;99.90;;;;;;6247224;22;20023;-82
2021/07/14 09:42:51;;;;;;;23.40;14.38;;;22.10;99.90;;;;;;6243062;23;20039;-81
2021/07/14 09:45:34;;;;;;;25.30;13.65;;;22.10;99.90;;;;;;6243780;23;20039;-81
2021/07/14 09:48:00;;;;;;;19.80;13.02;;;21.90;99.90;;;;;;6243671;23;20385;-80
2021/07/14 09:50:34;;;;;;;19.10;14.77;;;21.80;99.90;;;;;;6256199;22;20008;-80
2021/07/14 09:53:02;;;;;;;21.20;13.27;;;21.70;99.90;;;;;;6245798;22;20106;-81
2021/07/14 09:55:32;;;;;;;27.13;13.93;;;21.80;99.90;;;;;;6255251;22;20154;-81
2021/07/14 09:58:12;;;;;;;21.20;14.70;;;21.60;99.90;;;;;;6244891;23;20024;-80
2021/07/14 10:00:41;;;;;;;25.45;15.38;;;21.60;99.90;;;;;;6219456;23;20023;-82
2021/07/14 10:03:07;;;;;;;23.27;15.63;;;21.50;99.90;;;;;;6245850;23;20008;-81
2021/07/14 10:05:33;;;;;;;24.70;15.77;;;21.60;99.90;;;;;;6258704;22;20012;-81
2021/07/14 10:15:22;;;;;;;22.10;15.95;;;21.50;99.90;;;;;;6246267;23;20011;-79
2021/07/14 10:17:52;;;;;;;26.13;15.13;;;21.40;99.90;;;;;;6243974;23;20016;-80
2021/07/14 10:20:30;;;;;;;27.70;16.40;;;21.30;99.90;;;;;;6243023;23;20030;-80
2021/07/14 10:23:05;;;;;;;28.08;17.02;;;21.30;99.90;;;;;;6244300;22;20016;-80
2021/07/14 10:25:32;;;;;;;32.80;18.02;;;21.20;99.90;;;;;;6243894;23;20436;-80
2021/07/14 10:28:00;;;;;;;29.42;17.05;;;21.10;99.90;;;;;;6243226;23;20012;-80
2021/07/14 10:30:27;;;;;;;37.58;18.35;;;21.00;99.90;;;;;;6254402;23;20012;-81
2021/07/14 10:32:54;;;;;;;35.70;20.33;;;21.10;99.90;;;;;;6255118;22;20015;-81
2021/07/14 10:35:27;;;;;;;35.78;18.33;;;21.20;99.90;;;;;;6256259;22;20103;-81
2021/07/14 10:37:57;;;;;;;35.08;19.45;;;21.20;99.90;;;;;;6255680;22;20016;-82
2021/07/14 10:40:23;;;;;;;37.60;18.83;;;21.20;99.90;;;;;;6244518;23;20008;-82
2021/07/14 10:42:51;;;;;;;31.73;18.90;;;21.10;99.90;;;;;;6243874;23;20508;-83
2021/07/14 10:45:18;;;;;;;31.83;18.98;;;21.10;99.90;;;;;;6243488;23;20012;-82
2021/07/14 10:47:45;;;;;;;43.20;20.08;;;20.90;99.90;;;;;;6252250;23;20019;-81
2021/07/14 10:50:16;;;;;;;40.78;19.90;;;21.00;99.90;;;;;;6253356;23;20046;-82
2021/07/14 10:52:42;;;;;;;39.03;19.73;;;21.10;99.90;;;;;;6242781;23;20012;-82
2021/07/14 10:55:11;;;;;;;35.70;20.25;;;21.10;99.90;;;;;;6246655;23;20016;-82
2021/07/14 10:57:38;;;;;;;37.25;18.88;;;21.10;99.90;;;;;;6243627;23;20069;-82
2021/07/14 11:00:07;;;;;;;31.88;18.63;;;21.10;99.90;;;;;;6244336;23;20036;-82
2021/07/14 11:02:47;;;;;;;30.08;17.88;;;21.20;99.90;;;;;;6253516;22;20058;-82
2021/07/14 11:05:15;;;;;;;33.22;17.40;;;21.40;99.90;;;;;;6244285;23;20032;-82
2021/07/14 11:07:47;;;;;;;28.52;16.52;;;21.70;99.90;;;;;;6245110;22;20008;-82
2021/07/14 11:10:34;;;;;;;29.33;16.88;;;21.70;99.90;;;;;;6247399;23;20016;-82
2021/07/14 11:13:30;;;;;;;28.60;16.13;;;21.90;99.90;;;;;;6242577;23;20375;-81
2021/07/14 11:15:58;;;;;;;29.38;16.88;;;22.30;99.90;;;;;;6099120;23;20045;-82
2021/07/14 11:18:30;;;;;;;27.98;16.27;;;22.30;99.90;;;;;;6096343;23;20025;-82
2021/07/14 11:20:58;;;;;;;29.63;16.23;;;22.30;99.90;;;;;;6123739;23;20024;-82
2021/07/14 11:23:26;;;;;;;29.48;17.00;;;22.20;99.90;;;;;;6132197;23;20092;-82
2021/07/14 11:25:57;;;;;;;24.33;15.65;;;22.30;99.90;;;;;;6122414;23;20032;-81
2021/07/14 11:28:24;;;;;;;27.65;15.68;;;22.10;99.90;;;;;;6097759;23;20022;-81
2021/07/14 11:30:52;;;;;;;23.30;14.63;;;22.30;99.90;;;;;;6121898;23;20473;-82
2021/07/14 11:33:23;;;;;;;29.92;14.48;;;22.40;99.90;;;;;;6120840;23;20021;-81
2021/07/14 11:36:03;;;;;;;23.95;14.35;;;22.60;99.90;;;;;;6097717;23;20021;-82
2021/07/14 11:38:34;;;;;;;27.33;15.13;;;22.70;99.90;;;;;;6131785;23;20458;-82
2021/07/14 11:41:02;;;;;;;24.73;14.25;;;22.90;99.90;;;;;;6098645;23;20020;-82
2021/07/14 11:43:39;;;;;;;31.58;13.68;;;23.20;99.90;;;;;;6122319;23;20045;-82
2021/07/14 11:46:10;;;;;;;22.20;13.40;;;23.20;99.90;;;;;;6121746;23;20463;-82
2021/07/14 11:48:37;;;;;;;26.98;14.30;;;23.30;99.90;;;;;;6122646;23;20101;-82
2021/07/14 11:51:05;;;;;;;29.27;13.70;;;23.40;99.90;;;;;;6107400;23;20534;-82
2021/07/14 11:53:40;;;;;;;28.60;12.70;;;23.50;99.90;;;;;;6209431;23;20024;-82
2021/07/14 11:56:25;;;;;;;23.50;12.55;;;23.60;99.90;;;;;;6240521;23;20020;-82
2021/07/14 11:59:00;;;;;;;23.00;12.00;;;23.60;99.90;;;;;;6244888;22;20074;-82
2021/07/14 12:01:25;;;;;;;23.08;11.50;;;23.60;99.90;;;;;;6241177;23;20026;-82
2021/07/14 12:04:04;;;;;;;21.90;11.85;;;23.60;99.90;;;;;;6216329;23;20016;-82
2021/07/14 12:06:49;;;;;;;26.20;12.20;;;23.70;99.90;;;;;;6244203;22;20053;-82
2021/07/14 12:09:16;;;;;;;20.98;11.10;;;23.80;99.90;;;;;;6242871;23;20468;-82
2021/07/14 12:11:52;;;;;;;18.80;11.63;;;23.80;99.90;;;;;;6246273;22;20012;-82
2021/07/14 12:14:29;;;;;;;21.02;11.88;;;23.70;99.90;;;;;;6244914;23;20132;-82
2021/07/14 12:16:58;;;;;;;29.35;12.63;;;23.60;99.90;;;;;;6218963;23;20008;-82
2021/07/14 12:19:31;;;;;;;22.88;12.13;;;23.60;99.90;;;;;;6247522;23;20016;-82
2021/07/14 12:22:08;;;;;;;19.73;11.67;;;23.70;99.90;;;;;;6247680;22;20016;-82
2021/07/14 12:24:33;;;;;;;18.40;11.00;;;23.90;99.90;;;;;;6250616;23;20012;-82
2021/07/14 12:27:12;;;;;;;16.00;9.48;;;23.90;99.90;;;;;;6220433;23;20008;-82
2021/07/14 12:29:38;;;;;;;21.35;11.32;;;24.00;99.90;;;;;;6245788;23;20008;-82
2021/07/14 12:32:05;;;;;;;16.80;11.23;;;24.00;99.90;;;;;;6246801;22;20023;-82
2021/07/14 12:34:33;;;;;;;18.63;11.90;;;24.20;99.90;;;;;;6255209;23;20099;-82
2021/07/14 12:37:00;;;;;;;23.65;12.07;;;24.00;99.90;;;;;;6246022;22;20119;-82
2021/07/14 12:39:31;;;;;;;19.90;11.68;;;23.90;99.90;;;;;;6252318;22;20095;-82
2021/07/14 12:42:00;;;;;;;21.75;12.40;;;23.80;99.90;;;;;;6243004;23;20020;-82
2021/07/14 12:44:27;;;;;;;20.98;12.15;;;23.60;99.90;;;;;;6218430;23;20383;-82
2021/07/14 12:46:54;;;;;;;16.55;11.50;;;23.70;99.90;;;;;;6217108;23;20095;-82
2021/07/14 12:49:23;;;;;;;17.25;11.52;;;23.80;99.90;;;;;;6218121;23;20054;-82
2021/07/14 12:52:05;;;;;;;24.17;11.95;;;24.00;99.90;;;;;;6245784;22;20035;-82